長崎空港の過去48時間の天気

長崎空港 (Nagasaki)

現在時刻: 7/17 18:43 JST (7/17 09:43 UTC) 以下の時間は現地時間です。

過去48時間のMETAR気象情報
時間 風向 風速(m/s) 視程 気温(℃) 湿度(%) 気圧(hPa) 天気現象
17 18:00 北北西 4 10km以上 32 63 1010
17 17:00 北西 4 10km以上 32 67 1010
17 16:00 北北西 5 10km以上 33 59 1010
17 15:00 北西 3 10km以上 34 56 1010
17 14:22 西北西 3 10km以上 35 53 1010
17 14:00 西 3 10km以上 33 56 1011
17 13:00 不定 2 10km以上 33 56 1011
17 12:00 南西 3 10km以上 33 56 1011
17 11:00 南南西 2 10km以上 32 63 1012
17 10:12 2 10km以上 32 67 1012
17 10:00 北北東 2 10km以上 30 70 1012
17 09:00 2 10km以上 29 79 1012
17 08:00 不定 1 8000m 28 84 1012
17 07:00 東北東 2 10km以上 27 89 1013
17 06:10 不定 1 10km以上 26 89 1012
RJFU 170900Z 33008KT 9999 FEW040 SCT/// 32/24 Q1010
RJFU 170800Z 31007KT 180V350 9999 FEW040 SCT100 32/25 Q1010
RJFU 170700Z 33010KT 9999 FEW040 33/24 Q1010
RJFU 170600Z 32006KT 270V350 9999 FEW040 34/24 Q1010
RJFU 170522Z 30005KT 260V340 9999 FEW040 35/24 Q1010 RMK 1CU040 A2985
RJFU 170500Z 28005KT 240V330 9999 FEW030 33/23 Q1011
RJFU 170400Z VRB03KT 9999 FEW030 33/23 Q1011
RJFU 170300Z 22005KT 9999 FEW030 33/23 Q1011
RJFU 170200Z 20003KT 9999 FEW030 32/24 Q1012
RJFU 170112Z 17004KT 100V210 9999 FEW030 32/25 Q1012 RMK 1CU030 A2990
RJFU 170100Z 03003KT 350V080 9999 FEW030 30/24 Q1012
RJFU 170000Z 19003KT 9999 FEW020 29/25 Q1012
RJFU 162300Z VRB02KT 8000 FEW015 BKN050 28/25 Q1012
RJFU 162200Z 06003KT 040V100 9999 FEW030 SCT050 27/25 Q1013
RJFU 162110Z VRB01KT 9999 FEW030 BKN050 26/24 Q1012 RMK 1CU030 5SC050 A2991